sensor_id;sensor_type;location;lat;lon;timestamp;pressure;altitude;pressure_sealevel;temperature;humidity
8641;BME280;4358;42.100;25.222;2023-11-21T00:01:06;99927.34;;;7.07;100.00
8641;BME280;4358;42.100;25.222;2023-11-21T00:03:35;99928.56;;;6.85;100.00
8641;BME280;4358;42.100;25.222;2023-11-21T00:06:02;99931.88;;;6.71;100.00
8641;BME280;4358;42.100;25.222;2023-11-21T00:08:30;99927.16;;;6.60;100.00
8641;BME280;4358;42.100;25.222;2023-11-21T00:10:57;99940.78;;;6.51;100.00
8641;BME280;4358;42.100;25.222;2023-11-21T00:13:26;99945.38;;;6.48;100.00
8641;BME280;4358;42.100;25.222;2023-11-21T00:15:53;99945.38;;;6.48;100.00
8641;BME280;4358;42.100;25.222;2023-11-21T00:18:20;99958.47;;;6.49;100.00
8641;BME280;4358;42.100;25.222;2023-11-21T00:20:48;99955.19;;;6.44;100.00
8641;BME280;4358;42.100;25.222;2023-11-21T00:23:15;99949.31;;;6.39;100.00
8641;BME280;4358;42.100;25.222;2023-11-21T00:25:43;99952.72;;;6.41;100.00
8641;BME280;4358;42.100;25.222;2023-11-21T00:28:10;99954.03;;;6.32;100.00
8641;BME280;4358;42.100;25.222;2023-11-21T00:30:37;99959.09;;;6.37;100.00
8641;BME280;4358;42.100;25.222;2023-11-21T00:33:04;99966.13;;;6.36;100.00
8641;BME280;4358;42.100;25.222;2023-11-21T00:35:31;99967.13;;;6.34;100.00
8641;BME280;4358;42.100;25.222;2023-11-21T00:37:59;99964.19;;;6.40;100.00
8641;BME280;4358;42.100;25.222;2023-11-21T00:40:26;99967.63;;;6.42;100.00
8641;BME280;4358;42.100;25.222;2023-11-21T00:42:53;99969.69;;;6.35;100.00
8641;BME280;4358;42.100;25.222;2023-11-21T00:45:21;99966.50;;;6.29;100.00
8641;BME280;4358;42.100;25.222;2023-11-21T00:47:48;99962.00;;;6.31;100.00
8641;BME280;4358;42.100;25.222;2023-11-21T00:50:15;99960.94;;;6.35;100.00
8641;BME280;4358;42.100;25.222;2023-11-21T00:52:42;99953.94;;;6.34;100.00
8641;BME280;4358;42.100;25.222;2023-11-21T00:55:10;99944.66;;;6.44;100.00
8641;BME280;4358;42.100;25.222;2023-11-21T00:57:37;99940.00;;;6.49;100.00
8641;BME280;4358;42.100;25.222;2023-11-21T01:00:05;99942.50;;;6.52;100.00
8641;BME280;4358;42.100;25.222;2023-11-21T01:02:35;99941.72;;;6.50;100.00
8641;BME280;4358;42.100;25.222;2023-11-21T01:05:02;99936.63;;;6.47;100.00
8641;BME280;4358;42.100;25.222;2023-11-21T01:07:29;99938.47;;;6.45;100.00
8641;BME280;4358;42.100;25.222;2023-11-21T01:09:56;99934.44;;;6.38;100.00
8641;BME280;4358;42.100;25.222;2023-11-21T01:12:24;99941.09;;;6.45;100.00
8641;BME280;4358;42.100;25.222;2023-11-21T01:14:51;99947.91;;;6.49;100.00
8641;BME280;4358;42.100;25.222;2023-11-21T01:17:18;99948.09;;;6.46;100.00
8641;BME280;4358;42.100;25.222;2023-11-21T01:19:48;99953.53;;;6.43;100.00
8641;BME280;4358;42.100;25.222;2023-11-21T01:22:15;99951.81;;;6.42;100.00
8641;BME280;4358;42.100;25.222;2023-11-21T01:24:42;99952.03;;;6.37;100.00
8641;BME280;4358;42.100;25.222;2023-11-21T01:27:08;99937.72;;;6.24;100.00
8641;BME280;4358;42.100;25.222;2023-11-21T01:29:37;99942.59;;;6.15;100.00
8641;BME280;4358;42.100;25.222;2023-11-21T01:32:04;99944.31;;;6.16;100.00
8641;BME280;4358;42.100;25.222;2023-11-21T01:34:33;99936.41;;;6.16;100.00
8641;BME280;4358;42.100;25.222;2023-11-21T01:37:00;99942.59;;;5.77;100.00
8641;BME280;4358;42.100;25.222;2023-11-21T01:39:30;99936.78;;;5.89;100.00
8641;BME280;4358;42.100;25.222;2023-11-21T01:41:57;99938.94;;;6.00;100.00
8641;BME280;4358;42.100;25.222;2023-11-21T01:44:24;99926.09;;;5.92;100.00
8641;BME280;4358;42.100;25.222;2023-11-21T01:46:52;99929.81;;;5.88;100.00
8641;BME280;4358;42.100;25.222;2023-11-21T01:49:20;99926.34;;;5.86;100.00
8641;BME280;4358;42.100;25.222;2023-11-21T01:51:49;99922.25;;;5.62;100.00
8641;BME280;4358;42.100;25.222;2023-11-21T01:54:17;99924.88;;;5.62;100.00
8641;BME280;4358;42.100;25.222;2023-11-21T01:56:46;99923.38;;;5.57;100.00
8641;BME280;4358;42.100;25.222;2023-11-21T01:59:17;99930.03;;;5.65;100.00
8641;BME280;4358;42.100;25.222;2023-11-21T02:01:45;99925.47;;;5.69;100.00
8641;BME280;4358;42.100;25.222;2023-11-21T02:04:13;99928.50;;;5.78;100.00
8641;BME280;4358;42.100;25.222;2023-11-21T02:06:41;99932.06;;;5.77;100.00
8641;BME280;4358;42.100;25.222;2023-11-21T02:09:08;99931.16;;;5.78;100.00
8641;BME280;4358;42.100;25.222;2023-11-21T02:11:35;99931.94;;;5.80;100.00
8641;BME280;4358;42.100;25.222;2023-11-21T02:14:04;99932.78;;;5.81;100.00
8641;BME280;4358;42.100;25.222;2023-11-21T02:16:34;99928.34;;;5.81;100.00
8641;BME280;4358;42.100;25.222;2023-11-21T02:19:02;99924.03;;;5.80;100.00
8641;BME280;4358;42.100;25.222;2023-11-21T02:21:36;99917.91;;;5.80;100.00
8641;BME280;4358;42.100;25.222;2023-11-21T02:24:08;99923.03;;;5.83;100.00
8641;BME280;4358;42.100;25.222;2023-11-21T02:26:35;99914.06;;;5.87;100.00
8641;BME280;4358;42.100;25.222;2023-11-21T02:29:02;99902.34;;;5.75;100.00
8641;BME280;4358;42.100;25.222;2023-11-21T02:31:30;99912.94;;;5.74;100.00
8641;BME280;4358;42.100;25.222;2023-11-21T02:33:58;99918.31;;;5.71;100.00
8641;BME280;4358;42.100;25.222;2023-11-21T02:36:25;99901.06;;;5.65;100.00
8641;BME280;4358;42.100;25.222;2023-11-21T02:38:52;99908.00;;;5.66;100.00
8641;BME280;4358;42.100;25.222;2023-11-21T02:41:20;99915.16;;;5.64;100.00
8641;BME280;4358;42.100;25.222;2023-11-21T02:43:47;99913.44;;;5.63;100.00
8641;BME280;4358;42.100;25.222;2023-11-21T02:46:14;99915.53;;;5.55;100.00
8641;BME280;4358;42.100;25.222;2023-11-21T02:48:41;99913.88;;;5.54;100.00
8641;BME280;4358;42.100;25.222;2023-11-21T02:51:07;99902.75;;;5.47;100.00
8641;BME280;4358;42.100;25.222;2023-11-21T02:53:34;99915.00;;;5.48;100.00
8641;BME280;4358;42.100;25.222;2023-11-21T02:56:01;99906.88;;;5.53;100.00
8641;BME280;4358;42.100;25.222;2023-11-21T02:58:29;99918.28;;;5.53;100.00
8641;BME280;4358;42.100;25.222;2023-11-21T03:00:56;99922.69;;;5.53;100.00
8641;BME280;4358;42.100;25.222;2023-11-21T03:03:23;99924.41;;;5.54;100.00
8641;BME280;4358;42.100;25.222;2023-11-21T03:05:50;99923.59;;;5.52;100.00
8641;BME280;4358;42.100;25.222;2023-11-21T03:08:17;99929.78;;;5.51;100.00
8641;BME280;4358;42.100;25.222;2023-11-21T03:10:44;99933.50;;;5.47;100.00
8641;BME280;4358;42.100;25.222;2023-11-21T03:13:11;99928.38;;;5.44;100.00
8641;BME280;4358;42.100;25.222;2023-11-21T03:15:40;99934.56;;;5.43;100.00
8641;BME280;4358;42.100;25.222;2023-11-21T03:18:08;99927.72;;;5.39;100.00
8641;BME280;4358;42.100;25.222;2023-11-21T03:20:35;99931.50;;;5.33;100.00
8641;BME280;4358;42.100;25.222;2023-11-21T03:23:01;99933.53;;;5.27;100.00
8641;BME280;4358;42.100;25.222;2023-11-21T03:25:29;99933.00;;;5.19;100.00
8641;BME280;4358;42.100;25.222;2023-11-21T03:27:56;99921.94;;;5.12;100.00
8641;BME280;4358;42.100;25.222;2023-11-21T03:30:23;99922.13;;;5.07;100.00
8641;BME280;4358;42.100;25.222;2023-11-21T03:32:51;99924.03;;;5.04;100.00
8641;BME280;4358;42.100;25.222;2023-11-21T03:35:18;99921.84;;;4.93;100.00
8641;BME280;4358;42.100;25.222;2023-11-21T03:37:46;99916.88;;;4.87;100.00
8641;BME280;4358;42.100;25.222;2023-11-21T03:40:13;99913.94;;;4.75;100.00
8641;BME280;4358;42.100;25.222;2023-11-21T03:42:40;99910.28;;;4.57;100.00
8641;BME280;4358;42.100;25.222;2023-11-21T03:45:08;99908.22;;;4.45;100.00
8641;BME280;4358;42.100;25.222;2023-11-21T03:47:37;99908.78;;;4.51;100.00
8641;BME280;4358;42.100;25.222;2023-11-21T03:50:06;99907.06;;;4.50;100.00
8641;BME280;4358;42.100;25.222;2023-11-21T03:52:34;99913.19;;;4.51;100.00
8641;BME280;4358;42.100;25.222;2023-11-21T03:55:01;99913.78;;;4.57;100.00
8641;BME280;4358;42.100;25.222;2023-11-21T03:57:29;99920.03;;;4.55;100.00
8641;BME280;4358;42.100;25.222;2023-11-21T03:59:56;99921.00;;;4.52;100.00
8641;BME280;4358;42.100;25.222;2023-11-21T04:02:23;99917.91;;;4.43;100.00
8641;BME280;4358;42.100;25.222;2023-11-21T04:04:51;99920.50;;;4.22;100.00
8641;BME280;4358;42.100;25.222;2023-11-21T04:07:19;99927.97;;;4.11;100.00
8641;BME280;4358;42.100;25.222;2023-11-21T04:09:47;99927.53;;;4.00;100.00
8641;BME280;4358;42.100;25.222;2023-11-21T04:12:14;99929.34;;;3.98;100.00
8641;BME280;4358;42.100;25.222;2023-11-21T04:14:41;99935.59;;;3.96;100.00
8641;BME280;4358;42.100;25.222;2023-11-21T04:17:08;99936.84;;;3.87;100.00
8641;BME280;4358;42.100;25.222;2023-11-21T04:19:35;99938.50;;;3.88;100.00
8641;BME280;4358;42.100;25.222;2023-11-21T04:22:02;99942.69;;;3.94;100.00
8641;BME280;4358;42.100;25.222;2023-11-21T04:24:31;99946.22;;;3.93;100.00
8641;BME280;4358;42.100;25.222;2023-11-21T04:26:57;99952.22;;;3.96;100.00
8641;BME280;4358;42.100;25.222;2023-11-21T04:29:25;99942.84;;;3.89;100.00
8641;BME280;4358;42.100;25.222;2023-11-21T04:31:52;99949.00;;;3.88;100.00
8641;BME280;4358;42.100;25.222;2023-11-21T04:34:19;99939.88;;;3.76;100.00
8641;BME280;4358;42.100;25.222;2023-11-21T04:36:46;99949.63;;;3.73;100.00
8641;BME280;4358;42.100;25.222;2023-11-21T04:39:12;99949.38;;;3.79;100.00
8641;BME280;4358;42.100;25.222;2023-11-21T04:41:41;99957.75;;;3.89;100.00
8641;BME280;4358;42.100;25.222;2023-11-21T04:44:08;99957.94;;;3.84;100.00
8641;BME280;4358;42.100;25.222;2023-11-21T04:46:35;99963.09;;;3.87;100.00
8641;BME280;4358;42.100;25.222;2023-11-21T04:49:01;99957.56;;;3.93;100.00
8641;BME280;4358;42.100;25.222;2023-11-21T04:51:28;99952.31;;;3.93;100.00
8641;BME280;4358;42.100;25.222;2023-11-21T04:53:56;99944.88;;;4.04;100.00
8641;BME280;4358;42.100;25.222;2023-11-21T04:56:23;99946.34;;;4.11;100.00
8641;BME280;4358;42.100;25.222;2023-11-21T04:58:53;99956.00;;;4.11;100.00
8641;BME280;4358;42.100;25.222;2023-11-21T05:01:21;99956.63;;;4.17;100.00
8641;BME280;4358;42.100;25.222;2023-11-21T05:03:48;99959.31;;;4.16;100.00
8641;BME280;4358;42.100;25.222;2023-11-21T05:06:15;99961.88;;;4.17;100.00
8641;BME280;4358;42.100;25.222;2023-11-21T05:08:42;99972.31;;;3.74;100.00
8641;BME280;4358;42.100;25.222;2023-11-21T05:11:09;99968.91;;;3.72;100.00
8641;BME280;4358;42.100;25.222;2023-11-21T05:13:37;99964.91;;;3.85;100.00
8641;BME280;4358;42.100;25.222;2023-11-21T05:16:06;99963.81;;;3.91;100.00
8641;BME280;4358;42.100;25.222;2023-11-21T05:18:33;99973.28;;;3.95;100.00
8641;BME280;4358;42.100;25.222;2023-11-21T05:21:00;99983.91;;;3.92;100.00
8641;BME280;4358;42.100;25.222;2023-11-21T05:23:27;99984.19;;;3.84;100.00
8641;BME280;4358;42.100;25.222;2023-11-21T05:25:54;99978.25;;;3.79;100.00
8641;BME280;4358;42.100;25.222;2023-11-21T05:28:22;99984.09;;;3.87;100.00
8641;BME280;4358;42.100;25.222;2023-11-21T05:30:48;99988.97;;;3.96;100.00
8641;BME280;4358;42.100;25.222;2023-11-21T05:33:17;99982.69;;;4.00;100.00
8641;BME280;4358;42.100;25.222;2023-11-21T05:35:44;99994.09;;;3.99;100.00
8641;BME280;4358;42.100;25.222;2023-11-21T05:38:11;99988.75;;;4.02;100.00
8641;BME280;4358;42.100;25.222;2023-11-21T05:40:38;99969.41;;;4.03;100.00
8641;BME280;4358;42.100;25.222;2023-11-21T05:43:05;99978.72;;;4.12;100.00
8641;BME280;4358;42.100;25.222;2023-11-21T05:45:32;99974.81;;;4.22;100.00
8641;BME280;4358;42.100;25.222;2023-11-21T05:47:59;99981.56;;;4.29;100.00
8641;BME280;4358;42.100;25.222;2023-11-21T05:50:27;99978.59;;;4.37;100.00
8641;BME280;4358;42.100;25.222;2023-11-21T05:52:54;99977.34;;;4.45;100.00
8641;BME280;4358;42.100;25.222;2023-11-21T05:55:22;99973.72;;;4.49;100.00
8641;BME280;4358;42.100;25.222;2023-11-21T05:57:51;99974.84;;;4.64;100.00
8641;BME280;4358;42.100;25.222;2023-11-21T06:00:18;99975.13;;;4.78;100.00
8641;BME280;4358;42.100;25.222;2023-11-21T06:02:47;99971.38;;;4.84;100.00
8641;BME280;4358;42.100;25.222;2023-11-21T06:05:17;99977.63;;;5.01;100.00
8641;BME280;4358;42.100;25.222;2023-11-21T06:07:45;99974.75;;;5.07;100.00
8641;BME280;4358;42.100;25.222;2023-11-21T06:10:12;99971.75;;;5.15;100.00
8641;BME280;4358;42.100;25.222;2023-11-21T06:12:40;99974.13;;;5.21;100.00
8641;BME280;4358;42.100;25.222;2023-11-21T06:15:09;99987.09;;;5.26;100.00
8641;BME280;4358;42.100;25.222;2023-11-21T06:17:39;99988.78;;;5.27;100.00
8641;BME280;4358;42.100;25.222;2023-11-21T06:20:07;99995.78;;;5.28;100.00
8641;BME280;4358;42.100;25.222;2023-11-21T06:22:36;99998.91;;;5.36;100.00
8641;BME280;4358;42.100;25.222;2023-11-21T06:25:05;100002.19;;;5.41;100.00
8641;BME280;4358;42.100;25.222;2023-11-21T06:27:34;100007.03;;;5.50;100.00
8641;BME280;4358;42.100;25.222;2023-11-21T06:30:03;100005.06;;;5.55;100.00
8641;BME280;4358;42.100;25.222;2023-11-21T06:32:32;99983.34;;;5.50;100.00
8641;BME280;4358;42.100;25.222;2023-11-21T06:34:58;99999.59;;;5.60;100.00
8641;BME280;4358;42.100;25.222;2023-11-21T06:37:26;100002.69;;;5.69;100.00
8641;BME280;4358;42.100;25.222;2023-11-21T06:39:53;99989.88;;;5.80;100.00
8641;BME280;4358;42.100;25.222;2023-11-21T06:42:23;99985.94;;;5.90;100.00
8641;BME280;4358;42.100;25.222;2023-11-21T06:44:51;99984.00;;;5.94;100.00
8641;BME280;4358;42.100;25.222;2023-11-21T06:47:19;99991.88;;;5.75;100.00
8641;BME280;4358;42.100;25.222;2023-11-21T06:49:46;99998.09;;;5.54;100.00
8641;BME280;4358;42.100;25.222;2023-11-21T06:52:14;99999.94;;;5.52;100.00
8641;BME280;4358;42.100;25.222;2023-11-21T06:54:41;99987.75;;;5.70;100.00
8641;BME280;4358;42.100;25.222;2023-11-21T06:57:08;99985.31;;;5.84;100.00
8641;BME280;4358;42.100;25.222;2023-11-21T06:59:36;99989.75;;;6.02;100.00
8641;BME280;4358;42.100;25.222;2023-11-21T07:02:03;99997.88;;;6.16;100.00
8641;BME280;4358;42.100;25.222;2023-11-21T07:04:32;99991.00;;;6.31;100.00
8641;BME280;4358;42.100;25.222;2023-11-21T07:06:59;99994.56;;;6.49;100.00
8641;BME280;4358;42.100;25.222;2023-11-21T07:09:26;99992.22;;;6.60;100.00
8641;BME280;4358;42.100;25.222;2023-11-21T07:11:53;99994.78;;;6.61;100.00
8641;BME280;4358;42.100;25.222;2023-11-21T07:14:20;99999.16;;;6.79;100.00
8641;BME280;4358;42.100;25.222;2023-11-21T07:16:49;99998.38;;;6.95;100.00
8641;BME280;4358;42.100;25.222;2023-11-21T07:19:16;99990.63;;;7.09;100.00
8641;BME280;4358;42.100;25.222;2023-11-21T07:21:43;99985.31;;;7.26;100.00
8641;BME280;4358;42.100;25.222;2023-11-21T07:24:10;99980.72;;;7.47;100.00
8641;BME280;4358;42.100;25.222;2023-11-21T07:26:37;99988.22;;;7.54;100.00
8641;BME280;4358;42.100;25.222;2023-11-21T07:29:04;99980.75;;;7.62;100.00
8641;BME280;4358;42.100;25.222;2023-11-21T07:31:31;99992.88;;;7.82;100.00
8641;BME280;4358;42.100;25.222;2023-11-21T07:34:01;99986.81;;;7.96;100.00
8641;BME280;4358;42.100;25.222;2023-11-21T07:36:28;99997.06;;;8.02;100.00
8641;BME280;4358;42.100;25.222;2023-11-21T07:38:55;99987.59;;;8.14;100.00
8641;BME280;4358;42.100;25.222;2023-11-21T07:41:22;99985.91;;;8.13;100.00
8641;BME280;4358;42.100;25.222;2023-11-21T07:43:49;99986.94;;;8.10;100.00
8641;BME280;4358;42.100;25.222;2023-11-21T07:46:15;99971.41;;;8.04;100.00
8641;BME280;4358;42.100;25.222;2023-11-21T07:48:43;99966.47;;;7.98;100.00
8641;BME280;4358;42.100;25.222;2023-11-21T07:51:13;99968.16;;;8.15;100.00
8641;BME280;4358;42.100;25.222;2023-11-21T07:53:39;99970.88;;;8.13;100.00
8641;BME280;4358;42.100;25.222;2023-11-21T07:56:08;99974.81;;;8.22;100.00
8641;BME280;4358;42.100;25.222;2023-11-21T07:58:35;99992.25;;;8.41;100.00
8641;BME280;4358;42.100;25.222;2023-11-21T08:01:03;99986.22;;;8.54;100.00
8641;BME280;4358;42.100;25.222;2023-11-21T08:03:30;99981.03;;;8.68;100.00
8641;BME280;4358;42.100;25.222;2023-11-21T08:05:57;99979.09;;;8.85;100.00
8641;BME280;4358;42.100;25.222;2023-11-21T08:08:25;99971.94;;;9.02;100.00
8641;BME280;4358;42.100;25.222;2023-11-21T08:10:53;99981.44;;;9.20;100.00
8641;BME280;4358;42.100;25.222;2023-11-21T08:13:22;99976.44;;;9.29;100.00
8641;BME280;4358;42.100;25.222;2023-11-21T08:15:50;99943.81;;;9.29;100.00
8641;BME280;4358;42.100;25.222;2023-11-21T08:18:17;99987.66;;;9.63;100.00
8641;BME280;4358;42.100;25.222;2023-11-21T08:20:44;99991.25;;;9.62;100.00
8641;BME280;4358;42.100;25.222;2023-11-21T08:23:14;99984.91;;;9.78;100.00
8641;BME280;4358;42.100;25.222;2023-11-21T08:25:44;99978.91;;;9.89;100.00
8641;BME280;4358;42.100;25.222;2023-11-21T08:28:11;99988.25;;;10.09;100.00
8641;BME280;4358;42.100;25.222;2023-11-21T08:30:39;99988.34;;;10.22;100.00
8641;BME280;4358;42.100;25.222;2023-11-21T08:33:07;99979.53;;;10.35;100.00
8641;BME280;4358;42.100;25.222;2023-11-21T08:35:35;99983.16;;;10.47;100.00
8641;BME280;4358;42.100;25.222;2023-11-21T08:38:02;99976.19;;;10.58;100.00
8641;BME280;4358;42.100;25.222;2023-11-21T08:40:29;99969.03;;;10.73;100.00
8641;BME280;4358;42.100;25.222;2023-11-21T08:42:58;99954.63;;;10.77;100.00
8641;BME280;4358;42.100;25.222;2023-11-21T08:45:25;99967.19;;;11.00;100.00
8641;BME280;4358;42.100;25.222;2023-11-21T08:47:52;99961.22;;;11.10;100.00
8641;BME280;4358;42.100;25.222;2023-11-21T08:50:19;99951.81;;;11.18;100.00
8641;BME280;4358;42.100;25.222;2023-11-21T08:52:46;99945.75;;;11.29;100.00
8641;BME280;4358;42.100;25.222;2023-11-21T08:55:13;99943.72;;;11.45;100.00
8641;BME280;4358;42.100;25.222;2023-11-21T08:57:41;99951.25;;;11.26;100.00
8641;BME280;4358;42.100;25.222;2023-11-21T09:00:12;99946.59;;;11.29;100.00
8641;BME280;4358;42.100;25.222;2023-11-21T09:02:41;99934.69;;;11.47;100.00
8641;BME280;4358;42.100;25.222;2023-11-21T09:05:08;99929.78;;;11.67;100.00
8641;BME280;4358;42.100;25.222;2023-11-21T09:07:35;99918.28;;;11.79;100.00
8641;BME280;4358;42.100;25.222;2023-11-21T09:10:02;99912.94;;;11.92;100.00
8641;BME280;4358;42.100;25.222;2023-11-21T09:12:31;99913.66;;;12.06;100.00
8641;BME280;4358;42.100;25.222;2023-11-21T09:14:58;99912.00;;;12.16;100.00
8641;BME280;4358;42.100;25.222;2023-11-21T09:17:26;99912.19;;;12.26;100.00
8641;BME280;4358;42.100;25.222;2023-11-21T09:19:53;99911.53;;;12.35;99.72
8641;BME280;4358;42.100;25.222;2023-11-21T09:22:20;99912.53;;;12.45;98.46
8641;BME280;4358;42.100;25.222;2023-11-21T09:24:47;99909.97;;;12.44;98.66
8641;BME280;4358;42.100;25.222;2023-11-21T09:27:14;99904.66;;;12.44;99.89
8641;BME280;4358;42.100;25.222;2023-11-21T09:29:41;99901.69;;;12.59;98.21
8641;BME280;4358;42.100;25.222;2023-11-21T09:32:08;99903.66;;;12.68;96.86
8641;BME280;4358;42.100;25.222;2023-11-21T09:34:39;99896.16;;;12.73;96.12
8641;BME280;4358;42.100;25.222;2023-11-21T09:37:07;99888.56;;;12.80;95.92
8641;BME280;4358;42.100;25.222;2023-11-21T09:39:35;99885.09;;;12.91;95.54
8641;BME280;4358;42.100;25.222;2023-11-21T09:42:07;99886.31;;;12.98;94.21
8641;BME280;4358;42.100;25.222;2023-11-21T09:44:43;99879.53;;;13.05;94.79
8641;BME280;4358;42.100;25.222;2023-11-21T09:47:15;99880.03;;;13.10;94.39
8641;BME280;4358;42.100;25.222;2023-11-21T09:49:46;99870.22;;;13.10;94.32
8641;BME280;4358;42.100;25.222;2023-11-21T09:52:21;99871.59;;;13.16;93.91
8641;BME280;4358;42.100;25.222;2023-11-21T09:54:51;99861.31;;;13.23;93.76
8641;BME280;4358;42.100;25.222;2023-11-21T09:57:19;99865.78;;;13.33;93.19
8641;BME280;4358;42.100;25.222;2023-11-21T09:59:51;99821.91;;;13.15;93.34
8641;BME280;4358;42.100;25.222;2023-11-21T10:02:20;99857.06;;;13.20;93.78
8641;BME280;4358;42.100;25.222;2023-11-21T10:04:53;99851.50;;;13.34;93.04
8641;BME280;4358;42.100;25.222;2023-11-21T10:07:21;99847.63;;;13.49;92.06
8641;BME280;4358;42.100;25.222;2023-11-21T10:09:48;99843.00;;;13.40;92.06
8641;BME280;4358;42.100;25.222;2023-11-21T10:12:15;99845.44;;;13.32;92.34
8641;BME280;4358;42.100;25.222;2023-11-21T10:14:43;99834.03;;;13.19;92.56
8641;BME280;4358;42.100;25.222;2023-11-21T10:17:12;99838.38;;;12.98;93.71
8641;BME280;4358;42.100;25.222;2023-11-21T10:19:39;99826.97;;;12.85;93.83
8641;BME280;4358;42.100;25.222;2023-11-21T10:22:08;99826.50;;;13.02;93.13
8641;BME280;4358;42.100;25.222;2023-11-21T10:24:35;99822.38;;;13.09;92.76
8641;BME280;4358;42.100;25.222;2023-11-21T10:27:04;99819.59;;;13.10;92.96
8641;BME280;4358;42.100;25.222;2023-11-21T10:29:31;99810.53;;;13.24;91.88
8641;BME280;4358;42.100;25.222;2023-11-21T10:32:02;99808.13;;;13.32;91.13
8641;BME280;4358;42.100;25.222;2023-11-21T10:34:29;99797.09;;;13.26;91.41
8641;BME280;4358;42.100;25.222;2023-11-21T10:36:57;99792.13;;;13.32;91.25
8641;BME280;4358;42.100;25.222;2023-11-21T10:39:26;99787.00;;;13.51;90.54
8641;BME280;4358;42.100;25.222;2023-11-21T10:41:56;99789.41;;;13.66;89.75
8641;BME280;4358;42.100;25.222;2023-11-21T10:44:23;99785.53;;;13.70;88.94
8641;BME280;4358;42.100;25.222;2023-11-21T10:46:52;99779.81;;;13.74;87.90
8641;BME280;4358;42.100;25.222;2023-11-21T10:49:21;99782.56;;;13.84;88.20
8641;BME280;4358;42.100;25.222;2023-11-21T10:51:50;99785.22;;;13.84;87.80
8641;BME280;4358;42.100;25.222;2023-11-21T10:54:19;99779.97;;;13.93;87.98
8641;BME280;4358;42.100;25.222;2023-11-21T10:56:50;99768.19;;;14.07;87.23
8641;BME280;4358;42.100;25.222;2023-11-21T10:59:17;99769.56;;;14.22;85.75
8641;BME280;4358;42.100;25.222;2023-11-21T11:01:45;99767.53;;;14.35;85.19
8641;BME280;4358;42.100;25.222;2023-11-21T11:04:14;99759.25;;;14.50;84.19
8641;BME280;4358;42.100;25.222;2023-11-21T11:06:43;99765.50;;;14.60;83.65
8641;BME280;4358;42.100;25.222;2023-11-21T11:09:13;99766.06;;;14.63;83.90
8641;BME280;4358;42.100;25.222;2023-11-21T11:11:42;99769.00;;;14.81;83.24
8641;BME280;4358;42.100;25.222;2023-11-21T11:14:11;99756.53;;;14.91;82.40
8641;BME280;4358;42.100;25.222;2023-11-21T11:16:39;99752.72;;;14.94;81.69
8641;BME280;4358;42.100;25.222;2023-11-21T11:19:08;99751.56;;;14.87;81.54
8641;BME280;4358;42.100;25.222;2023-11-21T11:21:46;99753.13;;;14.89;81.00
8641;BME280;4358;42.100;25.222;2023-11-21T11:24:28;99738.25;;;14.96;80.90
8641;BME280;4358;42.100;25.222;2023-11-21T11:27:06;99732.22;;;15.04;80.82
8641;BME280;4358;42.100;25.222;2023-11-21T11:29:46;99727.72;;;15.04;80.99
8641;BME280;4358;42.100;25.222;2023-11-21T11:32:22;99719.72;;;15.04;80.69
8641;BME280;4358;42.100;25.222;2023-11-21T11:34:56;99726.06;;;15.13;81.17
8641;BME280;4358;42.100;25.222;2023-11-21T11:37:27;99722.09;;;15.07;81.19
8641;BME280;4358;42.100;25.222;2023-11-21T11:39:54;99711.41;;;15.07;81.23
8641;BME280;4358;42.100;25.222;2023-11-21T11:42:22;99721.84;;;15.10;80.72
8641;BME280;4358;42.100;25.222;2023-11-21T11:44:52;99709.22;;;15.12;80.59
8641;BME280;4358;42.100;25.222;2023-11-21T11:47:25;99706.25;;;15.15;80.54
8641;BME280;4358;42.100;25.222;2023-11-21T11:50:02;99705.97;;;15.18;79.83
8641;BME280;4358;42.100;25.222;2023-11-21T11:52:37;99697.69;;;15.21;80.04
8641;BME280;4358;42.100;25.222;2023-11-21T11:55:06;99687.00;;;15.21;80.14
8641;BME280;4358;42.100;25.222;2023-11-21T11:57:35;99692.34;;;15.21;80.43
8641;BME280;4358;42.100;25.222;2023-11-21T12:00:14;99677.28;;;15.20;79.89
8641;BME280;4358;42.100;25.222;2023-11-21T12:02:45;99671.22;;;15.18;80.19
8641;BME280;4358;42.100;25.222;2023-11-21T12:05:14;99668.69;;;15.17;80.48
8641;BME280;4358;42.100;25.222;2023-11-21T12:07:45;99663.91;;;15.11;80.34
8641;BME280;4358;42.100;25.222;2023-11-21T12:10:14;99649.50;;;15.02;81.09
8641;BME280;4358;42.100;25.222;2023-11-21T12:12:47;99648.09;;;14.98;81.54
8641;BME280;4358;42.100;25.222;2023-11-21T12:15:16;99634.31;;;14.93;81.42
8641;BME280;4358;42.100;25.222;2023-11-21T12:17:43;99626.69;;;14.89;81.53
8641;BME280;4358;42.100;25.222;2023-11-21T12:20:11;99624.44;;;14.84;81.64
8641;BME280;4358;42.100;25.222;2023-11-21T12:22:44;99625.94;;;14.67;82.40
8641;BME280;4358;42.100;25.222;2023-11-21T12:25:13;99621.72;;;14.65;82.63
8641;BME280;4358;42.100;25.222;2023-11-21T12:27:43;99622.06;;;14.51;83.29
8641;BME280;4358;42.100;25.222;2023-11-21T12:30:12;99611.97;;;14.54;83.62
8641;BME280;4358;42.100;25.222;2023-11-21T12:32:43;99613.06;;;14.52;83.82
8641;BME280;4358;42.100;25.222;2023-11-21T12:35:12;99622.06;;;14.51;84.08
8641;BME280;4358;42.100;25.222;2023-11-21T12:37:40;99625.75;;;14.50;84.19
8641;BME280;4358;42.100;25.222;2023-11-21T12:40:09;99626.00;;;14.47;84.42
8641;BME280;4358;42.100;25.222;2023-11-21T12:42:39;99610.50;;;14.40;84.48
8641;BME280;4358;42.100;25.222;2023-11-21T12:45:08;99626.97;;;14.46;84.78
8641;BME280;4358;42.100;25.222;2023-11-21T12:47:40;99619.22;;;14.43;85.26
8641;BME280;4358;42.100;25.222;2023-11-21T12:50:09;99611.91;;;14.45;85.08
8641;BME280;4358;42.100;25.222;2023-11-21T12:52:44;99599.56;;;14.44;85.17
8641;BME280;4358;42.100;25.222;2023-11-21T12:55:16;99607.34;;;14.35;85.17
8641;BME280;4358;42.100;25.222;2023-11-21T12:57:44;99605.44;;;14.37;85.01
8641;BME280;4358;42.100;25.222;2023-11-21T13:00:12;99611.47;;;14.39;85.07
8641;BME280;4358;42.100;25.222;2023-11-21T13:02:53;99616.56;;;14.43;85.00
8641;BME280;4358;42.100;25.222;2023-11-21T13:05:30;99606.31;;;14.48;84.73
8641;BME280;4358;42.100;25.222;2023-11-21T13:07:59;99608.91;;;14.59;85.16
8641;BME280;4358;42.100;25.222;2023-11-21T13:10:29;99603.03;;;14.65;84.80
8641;BME280;4358;42.100;25.222;2023-11-21T13:12:57;99601.31;;;14.64;84.61
8641;BME280;4358;42.100;25.222;2023-11-21T13:15:31;99593.75;;;14.69;84.11